O'Donnell, TX (79351)

10:50 PM CDT on April 27, 2015 (GMT -0500)
WT_Meso | | Change Station
CLOSE
Current Station
Personal Weather Station
Location: Odonnell, TX
Elevation: 3054 ft
Nearby Weather Stations

Elev 3054 ft 32.98 °N, 101.83 °W | Updated 25 minutes ago

Rain
Rain
44 °F
Feels Like 35 °F
N
24
Wind Variable Wind from North
Gusts 32.0 mph

Today
High -- | Low -- °F
--% Chance of Precip.
Yesterday
High -- | Low -- °F
Precip. -- in
7:04 AM 8:26 PM
Waxing Gibbous, 70% visible
Pressure 30.07 in
Visibility 10.0 miles
Clouds Scattered Clouds 1300 ft
Mostly Cloudy 1500 ft
Overcast 2500 ft
Windchill 35 °F
Dew Point 40 °F
Humidity 89%
Rainfall in
Snow Depth Not available.
UV 0 out of 12
Pollen 5.60 out of 12
Air Quality Not available.
Flu Activity Local Activity
SPECI KLBB 280345Z 01019G30KT 10SM -RA SCT013 BKN015 OVC025 06/04 A3007 RMK AO2 PK WND 01032/0325 P0003 T00610044 $

More Conditions Fewer Conditions

Pressure 30.07 in
Visibility 10.0 miles
Clouds Scattered Clouds 1300 ft
Mostly Cloudy 1500 ft
Overcast 2500 ft
Windchill 35 °F
Dew Point 40 °F
Humidity 89%
Rainfall in
Snow Depth Not available.
UV 0 out of 12
Pollen 5.60 out of 12
Air Quality Not available.
Flu Activity Local Activity
SPECI KLBB 280345Z 01019G30KT 10SM -RA SCT013 BKN015 OVC025 06/04 A3007 RMK AO2 PK WND 01032/0325 P0003 T00610044 $

More Conditions Fewer Conditions

Nowcast | as of 10:00 PM CDT on April 27, 2015

Through the late evening hours...a large area of cold rain will continue to shift slowly eastward across much of the southern Texas Panhandle and South Plains and into the rolling plains. Rainfall rates of a couple hundredths to a tenth of an inch an hour will be common...with localized quarter inch amounts. Motorists should be alert for ponding of water on roadways.

×

10-Day Weather Forecast

Almanac

Astronomy

Apr. 27, 2015 Rise Set
Actual Time
Civil Twilight
Nautical Twilight
Astronomical Twilight
Moon
Length of Visible Light
Length of Day
Tomorrow will be .
, % of the Moon is Illuminated

Today's Extremes

State Highs State Lows

Community

WunderPhotos

Upload Photos

1,817,557 photos uploaded!

WunderBlogs® & News

Nearby

Air Quality

  Air Quality AQ Index Pollutant
Not available.

Snow Depth

Station Depth Elevation

Earthquake Activity

City Distance Mag. Time & Date
Minimum magnitude displayed is 2.5.

Coastal Water Temperatures

Place Temperature

Stations

Nearby Weather Stations

Station Location Temp. Windchill Dew Point Humidity Wind Precip. Elev Updated Type